Time;durP1;ratioP1;P1;durP2;ratioP2;P2;SDS_P1;SDS_P2;PMS_P1;PMS_P2;Temp;Humidity;BMP_temperature;BMP_pressure;BME280_temperature;BME280_humidity;BME280_pressure;Samples;Min_cycle;Max_cycle;Signal;HPM_P1;HPM_P2
2022/05/23 00:00:51;;;;;;;3.95;1.63;;;14.10;95.40;;;;;;4232522;28;20047;-83
2022/05/23 00:02:52;;;;;;;4.65;1.40;;;14.10;95.40;;;;;;4237758;28;20048;-84
2022/05/23 00:04:53;;;;;;;4.40;1.70;;;14.00;95.50;;;;;;4244317;28;20051;-84
2022/05/23 00:06:55;;;;;;;4.53;2.15;;;14.00;95.50;;;;;;4243377;28;20095;-82
2022/05/23 00:08:56;;;;;;;6.75;2.05;;;14.00;95.50;;;;;;4242511;28;20054;-83
2022/05/23 00:10:58;;;;;;;3.17;1.45;;;14.00;95.60;;;;;;4244626;28;20043;-83
2022/05/23 00:12:58;;;;;;;3.22;1.65;;;14.00;95.90;;;;;;4240653;28;20054;-82
2022/05/23 00:14:59;;;;;;;2.95;1.45;;;13.90;95.80;;;;;;4236603;28;20411;-83
2022/05/23 00:17:00;;;;;;;4.60;1.92;;;13.90;95.80;;;;;;4219130;28;20080;-83
2022/05/23 00:19:00;;;;;;;2.60;1.65;;;13.80;95.90;;;;;;4218657;28;20493;-82
2022/05/23 00:21:01;;;;;;;8.63;2.92;;;13.80;95.90;;;;;;4237115;28;20391;-83
2022/05/23 00:23:02;;;;;;;3.95;1.30;;;14.10;96.20;;;;;;4217094;28;20040;-82
2022/05/23 00:25:03;;;;;;;5.80;1.55;;;13.70;96.20;;;;;;4234410;28;20480;-83
2022/05/23 00:27:05;;;;;;;4.97;1.50;;;13.70;96.30;;;;;;4234450;28;20448;-82
2022/05/23 00:29:06;;;;;;;1.70;1.55;;;13.70;96.30;;;;;;4234134;28;20078;-82
2022/05/23 00:31:08;;;;;;;3.38;1.70;;;13.70;96.50;;;;;;4215739;28;20044;-83
2022/05/23 00:35:29;;;;;;;6.47;1.75;;;13.60;96.60;;;;;;4234076;28;20050;-83
2022/05/23 00:37:29;;;;;;;4.32;1.70;;;13.60;96.70;;;;;;4234287;28;20040;-82
2022/05/23 00:39:30;;;;;;;5.28;1.80;;;13.60;96.70;;;;;;4233602;28;20071;-83
2022/05/23 00:44:01;;;;;;;6.10;2.17;;;13.40;97.10;;;;;;4216217;28;20484;-82
2022/05/23 00:46:06;;;;;;;5.95;2.53;;;13.40;97.10;;;;;;4234351;28;20730;-83
2022/05/23 00:48:08;;;;;;;4.32;1.67;;;13.30;97.20;;;;;;4233853;28;20093;-83
2022/05/23 00:50:16;;;;;;;2.72;1.80;;;13.30;97.40;;;;;;4233700;28;20130;-83
2022/05/23 00:52:25;;;;;;;3.42;2.00;;;13.30;97.50;;;;;;4233933;28;20422;-83
2022/05/23 00:54:43;;;;;;;4.68;2.35;;;13.30;97.60;;;;;;4233474;28;20093;-82
2022/05/23 00:56:47;;;;;;;6.07;2.40;;;13.20;97.60;;;;;;4233678;28;20035;-82
2022/05/23 00:58:51;;;;;;;2.78;2.00;;;13.20;97.70;;;;;;4233835;28;20114;-82
2022/05/23 01:00:57;;;;;;;4.70;1.98;;;13.10;97.80;;;;;;4233783;28;20044;-83
2022/05/23 01:03:03;;;;;;;2.67;2.10;;;13.10;97.80;;;;;;4233312;28;20036;-82
2022/05/23 01:05:09;;;;;;;3.75;1.90;;;13.10;98.00;;;;;;4244224;27;20047;-82
2022/05/23 01:07:12;;;;;;;5.45;2.05;;;13.10;98.10;;;;;;4250687;27;20047;-81
2022/05/23 01:09:12;;;;;;;4.53;2.30;;;13.00;98.00;;;;;;4250689;27;20039;-82
2022/05/23 01:11:14;;;;;;;5.93;2.30;;;13.00;98.10;;;;;;4250506;27;20042;-82
2022/05/23 01:13:15;;;;;;;3.83;2.30;;;13.10;98.30;;;;;;4232416;28;20094;-82
2022/05/23 01:15:25;;;;;;;9.00;2.65;;;12.90;98.40;;;;;;4231964;28;20438;-82
2022/05/23 01:17:30;;;;;;;3.92;2.20;;;12.90;98.40;;;;;;4250426;27;20042;-83
2022/05/23 01:19:30;;;;;;;4.85;2.95;;;12.90;98.50;;;;;;4250374;27;20051;-82
2022/05/23 01:21:40;;;;;;;3.95;2.10;;;12.90;98.60;;;;;;4249545;27;20062;-82
2022/05/23 01:24:00;;;;;;;5.90;2.40;;;12.80;98.70;;;;;;4250431;27;20031;-82
2022/05/23 01:26:01;;;;;;;4.40;2.13;;;12.80;98.70;;;;;;4249837;27;20123;-82
2022/05/23 01:28:03;;;;;;;6.68;2.55;;;12.80;98.70;;;;;;4250276;27;20051;-82
2022/05/23 01:30:05;;;;;;;6.32;2.05;;;12.80;98.70;;;;;;4249574;27;20043;-82
2022/05/23 01:32:05;;;;;;;6.07;2.33;;;12.70;98.80;;;;;;4250247;27;20046;-83
2022/05/23 01:34:07;;;;;;;7.20;3.08;;;12.70;98.90;;;;;;4250139;27;20043;-83
2022/05/23 01:36:11;;;;;;;4.15;2.15;;;12.70;98.90;;;;;;4250183;27;20092;-83
2022/05/23 01:38:12;;;;;;;4.15;2.33;;;12.60;99.00;;;;;;4250415;27;20043;-82
2022/05/23 01:40:15;;;;;;;4.38;2.65;;;12.60;99.00;;;;;;4250311;27;20050;-83
2022/05/23 01:42:16;;;;;;;6.53;2.53;;;12.50;99.20;;;;;;4231232;28;20419;-83
2022/05/23 01:44:17;;;;;;;5.50;2.53;;;12.50;99.30;;;;;;4249990;27;20051;-83
2022/05/23 01:46:18;;;;;;;3.92;2.63;;;12.50;99.40;;;;;;4250004;27;20039;-82
2022/05/23 01:48:18;;;;;;;5.57;2.38;;;12.50;99.40;;;;;;4250068;27;20046;-83
2022/05/23 01:50:20;;;;;;;5.53;2.60;;;12.50;99.40;;;;;;4249570;27;20043;-83
2022/05/23 01:52:21;;;;;;;4.65;2.22;;;12.40;99.40;;;;;;4249454;27;20122;-82
2022/05/23 01:54:21;;;;;;;7.50;2.60;;;12.40;99.60;;;;;;4250059;27;20054;-82
2022/05/23 01:56:22;;;;;;;6.72;2.80;;;12.30;99.50;;;;;;4249682;27;20039;-82
2022/05/23 02:03:01;;;;;;;4.65;2.15;;;12.40;99.70;;;;;;4249866;27;20537;-82
2022/05/23 02:05:03;;;;;;;4.35;2.20;;;12.40;99.70;;;;;;4249210;27;20042;-83
2022/05/23 02:07:05;;;;;;;6.15;2.75;;;12.40;99.80;;;;;;4249654;27;20054;-82
2022/05/23 02:09:06;;;;;;;4.05;2.13;;;12.40;99.80;;;;;;4250021;27;20123;-82
2022/05/23 02:11:07;;;;;;;6.30;2.75;;;12.40;99.90;;;;;;4249402;27;20039;-81
2022/05/23 02:13:07;;;;;;;7.05;2.80;;;12.50;99.90;;;;;;4249895;27;20051;-82
2022/05/23 02:15:08;;;;;;;6.07;2.45;;;12.50;99.90;;;;;;4249676;27;20050;-83
2022/05/23 02:17:11;;;;;;;5.50;2.15;;;12.50;99.90;;;;;;4230996;28;20562;-82
2022/05/23 02:19:12;;;;;;;8.00;2.67;;;12.50;99.90;;;;;;4231191;28;20105;-82
2022/05/23 02:21:13;;;;;;;4.93;2.20;;;12.50;99.90;;;;;;4249164;27;20043;-83
2022/05/23 02:23:13;;;;;;;5.25;2.20;;;12.50;99.90;;;;;;4249450;27;20399;-81
2022/05/23 02:25:15;;;;;;;4.55;2.00;;;12.50;99.90;;;;;;4248697;27;20067;-83
2022/05/23 02:27:16;;;;;;;8.75;2.58;;;12.50;99.90;;;;;;4248111;27;20050;-83
2022/05/23 02:29:18;;;;;;;7.22;2.30;;;12.50;99.90;;;;;;4214069;28;20412;-83
2022/05/23 02:31:19;;;;;;;6.00;2.15;;;12.60;99.90;;;;;;4214681;28;20052;-81
2022/05/23 02:33:19;;;;;;;5.32;2.08;;;12.50;99.90;;;;;;4196746;28;20390;-83
2022/05/23 02:35:20;;;;;;;6.07;2.30;;;12.60;99.90;;;;;;4232130;28;20395;-82
2022/05/23 02:37:21;;;;;;;4.50;2.47;;;12.50;99.90;;;;;;4232126;28;20046;-82
2022/05/23 02:39:21;;;;;;;4.10;1.85;;;12.50;99.90;;;;;;4231744;28;20044;-82
2022/05/23 02:41:22;;;;;;;6.30;2.13;;;12.50;99.90;;;;;;4232182;28;20048;-83
2022/05/23 02:43:23;;;;;;;6.63;1.98;;;12.50;99.90;;;;;;4213951;28;20036;-83
2022/05/23 02:45:24;;;;;;;5.47;1.80;;;12.50;99.90;;;;;;4231792;28;20046;-83
2022/05/23 02:47:25;;;;;;;2.63;1.73;;;12.50;99.90;;;;;;4213689;28;20135;-83
2022/05/23 02:49:26;;;;;;;5.07;1.95;;;12.50;99.90;;;;;;4231688;28;20137;-82
2022/05/23 02:51:27;;;;;;;5.43;2.33;;;12.50;99.90;;;;;;4232024;28;20047;-82
2022/05/23 02:53:27;;;;;;;4.70;2.00;;;12.50;99.90;;;;;;4213672;28;20044;-82
2022/05/23 02:55:29;;;;;;;5.22;2.58;;;12.50;99.90;;;;;;4214188;28;20111;-82
2022/05/23 02:57:30;;;;;;;4.60;1.90;;;12.50;99.90;;;;;;4231843;28;20046;-82
2022/05/23 02:59:30;;;;;;;2.90;1.80;;;12.50;99.90;;;;;;4213814;28;20052;-82
2022/05/23 03:01:32;;;;;;;4.75;2.03;;;12.50;99.90;;;;;;4231911;28;20126;-83
2022/05/23 03:03:33;;;;;;;4.38;1.60;;;12.40;99.90;;;;;;4213425;28;20547;-82
2022/05/23 03:05:44;;;;;;;4.68;2.00;;;12.40;99.90;;;;;;4245020;27;20035;-82
2022/05/23 03:07:45;;;;;;;6.78;2.30;;;12.40;99.90;;;;;;4248545;27;20043;-81
2022/05/23 03:09:46;;;;;;;5.05;2.25;;;12.40;99.90;;;;;;4248720;27;20047;-83
2022/05/23 03:11:48;;;;;;;9.60;2.33;;;12.40;99.90;;;;;;4248554;27;20406;-82
2022/05/23 03:13:49;;;;;;;4.07;2.20;;;12.40;99.90;;;;;;4248558;27;20035;-82
2022/05/23 03:15:50;;;;;;;3.78;1.90;;;12.40;99.90;;;;;;4248116;27;20058;-82
2022/05/23 03:17:51;;;;;;;5.93;3.05;;;12.50;99.90;;;;;;4248819;27;20051;-82
2022/05/23 03:19:52;;;;;;;5.47;2.05;;;12.30;99.90;;;;;;4248485;27;20039;-83
2022/05/23 03:28:51;;;;;;;2.97;1.70;;;12.40;99.90;;;;;;4248396;27;20055;-82
2022/05/23 03:30:52;;;;;;;4.85;1.63;;;12.40;99.90;;;;;;4248699;27;20050;-82
2022/05/23 03:32:52;;;;;;;6.68;1.70;;;12.40;99.90;;;;;;4213282;28;20047;-82
2022/05/23 03:34:53;;;;;;;6.18;2.25;;;12.40;99.90;;;;;;4243081;28;20071;-83
2022/05/23 03:36:53;;;;;;;5.90;1.77;;;12.50;99.90;;;;;;4232069;28;20074;-82
2022/05/23 03:38:54;;;;;;;4.95;2.03;;;12.40;99.90;;;;;;4231539;28;20135;-83
2022/05/23 03:40:55;;;;;;;5.40;1.88;;;12.40;99.90;;;;;;4213075;28;20052;-83
2022/05/23 03:42:56;;;;;;;4.75;2.50;;;12.40;99.90;;;;;;4231563;28;20083;-83
2022/05/23 03:44:57;;;;;;;5.97;2.00;;;12.50;99.90;;;;;;4234265;28;20035;-82
2022/05/23 03:46:57;;;;;;;2.67;1.70;;;12.40;99.90;;;;;;4234619;28;20150;-83
2022/05/23 03:48:58;;;;;;;2.70;1.75;;;12.40;99.90;;;;;;4234740;28;20044;-83
2022/05/23 03:51:00;;;;;;;5.50;2.00;;;12.40;99.90;;;;;;4216744;28;20098;-83
2022/05/23 03:53:02;;;;;;;5.13;2.03;;;12.50;99.90;;;;;;4234502;28;20099;-82
2022/05/23 03:55:03;;;;;;;4.80;1.95;;;12.40;99.90;;;;;;4234832;28;20040;-83
2022/05/23 03:57:04;;;;;;;3.08;1.88;;;12.40;99.90;;;;;;4234798;28;20066;-83
2022/05/23 03:59:05;;;;;;;4.75;2.08;;;12.40;99.90;;;;;;4234298;28;20036;-83
2022/05/23 04:01:09;;;;;;;2.55;1.80;;;12.40;99.90;;;;;;4216764;28;20124;-83
2022/05/23 04:03:10;;;;;;;7.03;2.00;;;12.50;99.90;;;;;;4219071;28;20073;-82
2022/05/23 04:05:12;;;;;;;7.18;2.60;;;12.50;99.90;;;;;;4212056;28;20459;-83
2022/05/23 04:07:13;;;;;;;5.72;2.08;;;12.50;99.90;;;;;;4251564;27;20057;-83
2022/05/23 04:09:14;;;;;;;3.33;2.03;;;12.50;99.90;;;;;;4231083;28;20044;-83
2022/05/23 04:11:15;;;;;;;7.78;2.25;;;12.50;99.90;;;;;;4234561;28;20043;-83
2022/05/23 04:13:15;;;;;;;4.95;2.05;;;12.50;99.90;;;;;;4214688;28;20123;-82
2022/05/23 04:15:17;;;;;;;9.52;2.35;;;12.60;99.90;;;;;;4251144;27;20515;-82
2022/05/23 04:17:17;;;;;;;5.55;2.08;;;12.60;99.90;;;;;;4251141;27;20054;-82
2022/05/23 04:19:19;;;;;;;6.90;2.00;;;12.60;99.90;;;;;;4232878;28;20558;-82
2022/05/23 04:21:20;;;;;;;5.22;2.00;;;12.60;99.90;;;;;;4232675;28;20059;-82
2022/05/23 04:23:20;;;;;;;7.53;1.88;;;12.70;99.90;;;;;;4232972;28;20047;-82
2022/05/23 04:25:21;;;;;;;3.65;1.80;;;12.60;99.90;;;;;;4251306;27;20066;-82
2022/05/23 04:27:21;;;;;;;2.70;1.77;;;12.60;99.90;;;;;;4232804;28;20047;-82
2022/05/23 04:29:23;;;;;;;4.80;1.58;;;12.60;99.90;;;;;;4233400;28;20043;-82
2022/05/23 04:31:24;;;;;;;6.97;1.80;;;12.60;99.90;;;;;;4232962;28;20051;-83
2022/05/23 04:35:45;;;;;;;2.78;1.85;;;12.60;99.90;;;;;;4251122;27;20118;-83
2022/05/23 04:37:48;;;;;;;4.05;2.55;;;12.70;99.90;;;;;;4251489;27;20043;-82
2022/05/23 04:39:49;;;;;;;4.75;1.83;;;12.60;99.90;;;;;;4251194;27;20482;-83
2022/05/23 04:41:49;;;;;;;4.78;2.17;;;12.70;99.90;;;;;;4251449;27;20050;-83
2022/05/23 04:43:53;;;;;;;6.07;1.73;;;12.70;99.90;;;;;;4232688;28;20050;-83
2022/05/23 04:45:54;;;;;;;4.28;2.22;;;12.70;99.90;;;;;;4232803;28;20483;-83
2022/05/23 04:50:15;;;;;;;3.97;1.95;;;12.70;99.90;;;;;;4250852;27;20151;-83
2022/05/23 04:52:22;;;;;;;5.75;2.22;;;12.70;99.90;;;;;;4251115;27;20039;-83
2022/05/23 04:54:23;;;;;;;4.70;2.25;;;12.70;99.90;;;;;;4250323;27;20402;-83
2022/05/23 04:56:26;;;;;;;6.05;2.53;;;12.80;99.90;;;;;;4214415;28;20119;-83
2022/05/23 04:58:30;;;;;;;3.80;2.65;;;13.10;99.90;;;;;;4244286;27;20040;-83
2022/05/23 05:00:31;;;;;;;4.18;2.30;;;12.80;99.90;;;;;;4233678;28;20040;-83
2022/05/23 05:02:31;;;;;;;7.70;2.50;;;12.90;99.90;;;;;;4220739;28;20040;-82
2022/05/23 05:04:35;;;;;;;7.55;2.35;;;13.00;99.90;;;;;;4249545;27;20038;-83
2022/05/23 05:06:37;;;;;;;6.85;2.20;;;13.20;99.90;;;;;;4234443;28;20061;-82
2022/05/23 05:08:37;;;;;;;5.22;2.20;;;13.10;99.90;;;;;;4217006;28;20054;-82
2022/05/23 05:10:38;;;;;;;6.53;2.40;;;13.10;99.90;;;;;;4232552;28;20051;-81
2022/05/23 05:12:39;;;;;;;5.78;2.20;;;13.20;99.90;;;;;;4252383;27;20043;-82
2022/05/23 05:14:41;;;;;;;7.78;3.22;;;13.30;99.90;;;;;;4225179;28;20154;-82
2022/05/23 05:16:41;;;;;;;5.57;2.47;;;13.40;99.90;;;;;;4211811;28;20566;-82
2022/05/23 05:18:42;;;;;;;6.50;2.30;;;13.50;99.90;;;;;;4251137;27;20039;-82
2022/05/23 05:20:43;;;;;;;6.47;2.33;;;13.50;99.90;;;;;;4244727;27;20055;-82
2022/05/23 05:22:44;;;;;;;7.22;2.60;;;13.60;99.90;;;;;;4250844;27;20043;-82
2022/05/23 05:24:45;;;;;;;5.93;2.55;;;13.60;99.90;;;;;;4232486;28;20031;-82
2022/05/23 05:26:46;;;;;;;9.30;2.70;;;13.70;99.90;;;;;;4215824;28;20048;-82
2022/05/23 05:28:47;;;;;;;5.53;2.45;;;13.20;99.90;;;;;;4251650;27;20498;-82
2022/05/23 05:30:56;;;;;;;8.10;2.75;;;13.80;99.90;;;;;;4232807;28;20840;-82
2022/05/23 05:33:10;;;;;;;4.55;2.40;;;13.80;99.90;;;;;;4238978;27;20039;-82
2022/05/23 05:35:25;;;;;;;4.07;2.60;;;13.80;99.90;;;;;;4234126;28;20495;-82
2022/05/23 05:37:33;;;;;;;5.03;2.65;;;13.60;99.90;;;;;;4234290;28;20156;-83
2022/05/23 05:39:36;;;;;;;8.60;2.90;;;13.80;99.90;;;;;;4235588;28;20092;-83
2022/05/23 05:42:03;;;;;;;9.07;2.97;;;13.80;99.90;;;;;;4235541;28;20083;-83
2022/05/23 05:44:08;;;;;;;7.43;2.90;;;13.80;99.90;;;;;;4216495;28;20541;-82
2022/05/23 05:46:21;;;;;;;3.05;2.33;;;13.90;99.90;;;;;;4233883;28;20434;-82
2022/05/23 05:48:23;;;;;;;6.45;2.58;;;14.00;99.90;;;;;;4235238;28;20040;-82
2022/05/23 05:50:30;;;;;;;7.75;3.90;;;14.10;99.90;;;;;;4217123;28;20036;-82
2022/05/23 05:52:34;;;;;;;12.55;3.60;;;14.10;99.90;;;;;;4235440;28;20051;-82
2022/05/23 05:54:36;;;;;;;4.07;2.72;;;14.10;99.90;;;;;;4198105;28;20059;-82
2022/05/23 05:56:38;;;;;;;7.95;3.03;;;14.10;99.90;;;;;;4235048;27;20047;-82
2022/05/23 05:58:39;;;;;;;7.35;3.70;;;14.20;99.90;;;;;;4250710;27;20112;-82
2022/05/23 06:00:40;;;;;;;6.35;2.85;;;14.20;99.90;;;;;;4245391;27;20039;-83
2022/05/23 06:02:41;;;;;;;6.05;3.42;;;14.20;99.90;;;;;;4231390;28;20047;-82
2022/05/23 06:04:41;;;;;;;6.13;2.78;;;14.30;99.90;;;;;;4249231;27;20039;-82
2022/05/23 06:11:26;;;;;;;8.10;3.10;;;14.60;99.70;;;;;;4249584;27;20051;-82
2022/05/23 06:13:26;;;;;;;7.88;3.20;;;14.70;99.60;;;;;;4228979;28;20569;-82
2022/05/23 06:15:27;;;;;;;7.40;3.78;;;14.80;99.40;;;;;;4249530;27;20092;-82
2022/05/23 06:17:28;;;;;;;11.75;3.63;;;14.90;99.20;;;;;;4249702;27;20069;-82
2022/05/23 06:19:36;;;;;;;8.77;3.38;;;14.90;99.10;;;;;;4231160;28;20054;-82
2022/05/23 06:21:36;;;;;;;7.13;3.20;;;15.00;99.00;;;;;;4249522;27;20084;-82
2022/05/23 06:23:37;;;;;;;7.97;3.58;;;15.10;99.10;;;;;;4249744;27;20051;-82
2022/05/23 06:25:38;;;;;;;8.55;3.17;;;15.10;99.00;;;;;;4249194;27;20050;-82
2022/05/23 06:27:39;;;;;;;8.25;3.42;;;15.30;98.90;;;;;;4231456;28;20044;-81
2022/05/23 06:29:40;;;;;;;5.85;3.33;;;15.10;98.80;;;;;;4249333;27;20400;-82
2022/05/23 06:31:41;;;;;;;8.52;3.47;;;15.30;98.70;;;;;;4249496;27;20047;-82
2022/05/23 06:33:43;;;;;;;7.18;3.50;;;15.30;98.50;;;;;;4231400;28;20109;-82
2022/05/23 06:35:43;;;;;;;6.82;3.30;;;15.50;98.50;;;;;;4230991;28;20050;-83
2022/05/23 06:37:44;;;;;;;7.82;3.88;;;15.50;98.30;;;;;;4249812;27;20047;-83
2022/05/23 06:39:45;;;;;;;8.10;3.95;;;15.70;98.20;;;;;;4249758;27;20039;-82
2022/05/23 06:41:48;;;;;;;7.65;3.90;;;;;;;;;;4234221;28;20384;-83
2022/05/23 06:43:49;;;;;;;6.05;3.88;;;;;;;;;;4250129;27;20556;-82
2022/05/23 06:45:51;;;;;;;8.50;4.30;;;;;;;;;;4249323;27;20131;-81
2022/05/23 06:47:52;;;;;;;5.90;3.63;;;;;;;;;;4249627;27;20039;-81
2022/05/23 06:49:53;;;;;;;6.00;3.97;;;;;;;;;;4231245;28;20043;-81
2022/05/23 06:51:54;;;;;;;12.57;4.25;;;;;;;;;;4250011;27;20050;-81
2022/05/23 06:53:57;;;;;;;8.15;3.80;;;;;;;;;;4214869;28;20400;-83
2022/05/23 06:55:58;;;;;;;6.82;3.67;;;;;;;;;;4249142;27;20501;-82
2022/05/23 06:57:59;;;;;;;7.45;3.80;;;;;;;;;;4248941;27;20047;-82
2022/05/23 07:00:00;;;;;;;7.25;4.45;;;;;;;;;;4230846;28;20122;-81
2022/05/23 07:02:01;;;;;;;6.05;3.53;;;;;;;;;;4249638;27;20035;-82
2022/05/23 07:04:02;;;;;;;10.65;3.65;;;;;;;;;;4249050;27;20047;-82
2022/05/23 07:13:05;;;;;;;8.48;4.35;;;15.80;98.10;;;;;;4248786;27;20043;-82
2022/05/23 07:15:06;;;;;;;10.57;3.78;;;17.00;96.10;;;;;;4249447;27;20085;-82
2022/05/23 07:17:07;;;;;;;11.85;4.75;;;17.00;95.70;;;;;;4248955;27;20106;-82
2022/05/23 07:19:08;;;;;;;7.95;4.32;;;;;;;;;;4248790;27;20550;-82
2022/05/23 07:21:09;;;;;;;7.95;4.72;;;;;;;;;;4249359;27;20051;-82
2022/05/23 07:23:11;;;;;;;7.53;4.43;;;;;;;;;;4230543;28;20055;-83
2022/05/23 07:25:13;;;;;;;10.00;4.53;;;;;;;;;;4247998;27;20047;-82
2022/05/23 07:27:14;;;;;;;11.82;4.50;;;17.00;95.40;;;;;;4230392;28;20499;-83
2022/05/23 07:29:14;;;;;;;8.82;4.72;;;17.40;94.70;;;;;;4248128;27;20042;-83
2022/05/23 07:31:19;;;;;;;11.48;4.55;;;17.50;94.40;;;;;;4248501;27;20039;-83
2022/05/23 07:33:20;;;;;;;8.85;4.57;;;17.60;94.40;;;;;;4247594;28;20084;-83
2022/05/23 07:35:21;;;;;;;7.28;4.18;;;17.70;94.40;;;;;;4231159;28;20612;-83
2022/05/23 07:37:21;;;;;;;9.18;3.75;;;17.90;94.20;;;;;;4231549;28;20055;-83
2022/05/23 07:39:24;;;;;;;8.00;3.95;;;18.10;93.90;;;;;;4230953;28;20046;-83
2022/05/23 07:41:25;;;;;;;10.43;4.82;;;18.30;93.90;;;;;;4212869;28;20048;-83
2022/05/23 07:43:26;;;;;;;8.65;4.10;;;18.40;93.40;;;;;;4212253;28;20119;-83
2022/05/23 07:45:26;;;;;;;10.18;3.58;;;18.40;93.10;;;;;;4230903;28;20074;-83
2022/05/23 07:47:28;;;;;;;11.40;4.85;;;18.60;93.20;;;;;;4231361;28;20039;-83
2022/05/23 07:49:28;;;;;;;10.15;4.00;;;18.70;93.00;;;;;;4231082;28;20123;-83
2022/05/23 07:51:30;;;;;;;10.40;4.75;;;18.80;92.80;;;;;;4195636;28;20106;-83
2022/05/23 08:00:32;;;;;;;7.82;4.20;;;18.90;92.20;;;;;;4231125;28;20044;-81
2022/05/23 08:02:33;;;;;;;4.72;3.33;;;19.00;92.40;;;;;;4213439;28;20503;-83
2022/05/23 08:04:34;;;;;;;8.55;3.95;;;19.10;92.50;;;;;;4222135;28;20040;-84
2022/05/23 08:06:35;;;;;;;9.02;4.30;;;19.20;92.60;;;;;;4229044;28;20054;-83
2022/05/23 08:08:36;;;;;;;9.13;4.00;;;19.30;92.50;;;;;;4213345;28;20098;-83
2022/05/23 08:10:37;;;;;;;9.30;3.88;;;19.50;92.50;;;;;;4230450;28;20044;-83
2022/05/23 08:12:39;;;;;;;7.38;3.90;;;19.60;92.20;;;;;;4212452;28;20040;-83
2022/05/23 08:14:40;;;;;;;6.90;4.15;;;19.70;91.90;;;;;;4212418;28;20454;-83
2022/05/23 08:16:41;;;;;;;7.60;4.13;;;19.90;91.80;;;;;;4212349;28;20040;-83
2022/05/23 08:18:42;;;;;;;11.77;5.38;;;20.10;91.60;;;;;;4230610;28;20119;-83
2022/05/23 08:20:43;;;;;;;8.85;3.45;;;20.20;91.40;;;;;;4230134;28;20051;-83
2022/05/23 08:22:47;;;;;;;7.97;3.83;;;20.30;91.30;;;;;;4230431;28;20507;-83
2022/05/23 08:24:48;;;;;;;11.73;4.85;;;20.30;91.10;;;;;;4230185;28;20035;-83
2022/05/23 08:26:48;;;;;;;9.38;3.95;;;20.30;90.90;;;;;;4230761;28;20042;-84
2022/05/23 08:28:49;;;;;;;8.80;4.18;;;20.30;90.80;;;;;;4226214;28;20044;-83
2022/05/23 08:30:51;;;;;;;8.38;3.92;;;20.20;90.50;;;;;;4248315;27;20058;-83
2022/05/23 08:32:52;;;;;;;6.28;3.58;;;20.20;90.40;;;;;;4250511;27;20114;-83
2022/05/23 08:34:52;;;;;;;9.32;3.88;;;20.10;90.20;;;;;;4250488;27;20042;-83
2022/05/23 08:36:54;;;;;;;8.75;3.55;;;19.40;90.10;;;;;;4250512;27;20042;-83
2022/05/23 08:38:55;;;;;;;7.53;3.50;;;20.10;90.30;;;;;;4250474;27;20448;-84
2022/05/23 08:41:14;;;;;;;7.80;3.92;;;20.30;90.30;;;;;;4250568;27;20047;-83
2022/05/23 08:43:40;;;;;;;8.57;3.72;;;20.40;90.00;;;;;;4232737;28;20043;-84
2022/05/23 08:45:44;;;;;;;5.97;3.58;;;20.60;89.70;;;;;;4249030;27;20051;-84
2022/05/23 08:48:07;;;;;;;8.30;3.65;;;20.80;89.20;;;;;;4250647;27;20380;-84
2022/05/23 08:50:35;;;;;;;5.53;3.30;;;21.10;88.90;;;;;;4251010;27;20047;-83
2022/05/23 08:52:45;;;;;;;11.52;4.88;;;21.40;88.60;;;;;;4251140;27;20043;-83
2022/05/23 08:55:02;;;;;;;7.32;3.85;;;21.70;87.40;;;;;;4258053;27;20049;-82
2022/05/23 08:57:07;;;;;;;12.10;3.83;;;22.00;86.10;;;;;;4240786;28;20039;-83
2022/05/23 08:59:25;;;;;;;9.85;3.72;;;22.20;85.80;;;;;;4249369;27;20043;-83
2022/05/23 09:01:40;;;;;;;10.13;3.63;;;22.20;81.00;;;;;;4223373;28;20048;-83
2022/05/23 09:03:48;;;;;;;6.28;3.28;;;22.30;84.90;;;;;;4204684;28;20064;-82
2022/05/23 09:05:57;;;;;;;5.75;3.33;;;22.50;84.00;;;;;;4218001;28;20532;-83
2022/05/23 09:08:05;;;;;;;;;;;22.50;83.50;;;;;;4232714;28;20411;-83
2022/05/23 09:10:23;;;;;;;5.65;2.88;;;22.60;82.80;;;;;;4232943;28;19958;-83
2022/05/23 09:12:23;;;;;;;6.80;3.58;;;22.70;83.40;;;;;;4233194;28;20043;-83
2022/05/23 09:14:24;;;;;;;6.28;3.53;;;22.60;83.30;;;;;;4214669;28;20085;-83
2022/05/23 09:16:42;;;;;;;7.72;4.28;;;22.50;82.60;;;;;;4232523;28;20040;-83
2022/05/23 09:18:47;;;;;;;6.57;3.35;;;22.50;82.50;;;;;;4232358;28;20457;-83
2022/05/23 09:20:51;;;;;;;10.65;4.68;;;22.50;83.10;;;;;;4233579;28;20115;-83
2022/05/23 09:22:58;;;;;;;8.23;3.05;;;22.70;83.60;;;;;;4235335;28;20052;-84
2022/05/23 09:25:01;;;;;;;10.48;3.80;;;;;;;;;;4223248;28;20059;-83
2022/05/23 09:27:07;;;;;;;7.72;3.28;;;;;;;;;;4234770;28;20043;-83
2022/05/23 09:29:09;;;;;;;9.15;3.25;;;;;;;;;;4249681;27;20039;-83
2022/05/23 09:31:26;;;;;;;7.05;3.28;;;;;;;;;;4253170;27;20069;-82
2022/05/23 09:33:41;;;;;;;7.45;3.67;;;;;;;;;;4254082;27;20043;-82
2022/05/23 09:35:42;;;;;;;4.15;3.10;;;;;;;;;;4239568;28;20047;-83
2022/05/23 09:37:46;;;;;;;8.93;3.35;;;;;;;;;;4255123;27;20572;-82
2022/05/23 09:39:59;;;;;;;6.28;2.90;;;;;;;;;;4251192;27;20043;-83
2022/05/23 09:49:23;;;;;;;7.30;2.60;;;;;;;;;;4254866;27;20075;-83
2022/05/23 09:51:25;;;;;;;8.25;2.70;;;;;;;;;;4258074;27;20043;-84
2022/05/23 09:53:28;;;;;;;5.68;2.58;;;;;;;;;;4262344;27;20443;-84
2022/05/23 09:55:33;;;;;;;7.32;2.22;;;;;;;;;;4262811;27;20047;-82
2022/05/23 09:57:36;;;;;;;7.50;2.40;;;;;;;;;;4262702;27;20069;-83
2022/05/23 09:59:38;;;;;;;3.65;1.90;;;;;;;;;;4257512;27;20043;-83
2022/05/23 10:01:40;;;;;;;6.20;2.50;;;;;;;;;;4234542;28;20136;-83
2022/05/23 10:03:48;;;;;;;6.25;2.35;;;;;;;;;;4232216;28;20039;-83
2022/05/23 10:06:01;;;;;;;6.10;2.30;;;;;;;;;;4249379;27;20040;-83
2022/05/23 10:08:12;;;;;;;7.03;2.70;;;;;;;;;;4249670;27;20490;-83
2022/05/23 10:10:25;;;;;;;7.57;2.10;;;;;;;;;;4230893;28;20066;-84
2022/05/23 10:12:26;;;;;;;6.18;1.92;;;;;;;;;;4231822;28;20145;-83
2022/05/23 10:14:39;;;;;;;3.92;2.10;;;;;;;;;;4249995;27;20130;-83
2022/05/23 10:16:45;;;;;;;3.20;1.85;;;;;;;;;;4231595;28;20512;-83
2022/05/23 10:18:49;;;;;;;4.60;1.80;;;;;;;;;;4232311;28;20051;-82
2022/05/23 10:20:51;;;;;;;7.30;2.10;;;;;;;;;;4232277;28;20083;-83
2022/05/23 10:23:04;;;;;;;3.38;1.73;;;;;;;;;;4217963;28;20051;-83
2022/05/23 10:25:06;;;;;;;5.35;2.22;;;22.90;82.70;;;;;;4198227;28;20036;-83
2022/05/23 10:27:13;;;;;;;7.13;2.72;;;25.60;65.10;;;;;;4217094;28;20480;-82
2022/05/23 10:29:26;;;;;;;6.72;2.60;;;25.30;64.90;;;;;;4215589;28;20115;-82
2022/05/23 10:31:37;;;;;;;2.63;1.50;;;25.30;65.30;;;;;;4215302;28;20076;-82
2022/05/23 10:33:39;;;;;;;3.15;1.67;;;25.30;65.50;;;;;;4216075;28;20044;-83
2022/05/23 10:35:59;;;;;;;6.00;3.00;;;25.30;66.10;;;;;;4216063;28;20441;-83
2022/05/23 10:42:07;;;;;;;4.05;1.80;;;25.20;66.40;;;;;;4214793;28;20052;-83
2022/05/23 10:42:56;;;;;;;3.85;1.98;;;25.10;67.10;;;;;;4216995;28;20091;-83
2022/05/23 10:45:12;;;;;;;3.58;1.88;;;25.20;66.70;;;;;;4215306;28;20063;-83
2022/05/23 10:47:32;;;;;;;5.95;2.78;;;;;;;;;;4230880;28;20373;-81
2022/05/23 10:49:41;;;;;;;3.50;1.60;;;;;;;;;;4213146;28;20081;-82
2022/05/23 10:51:49;;;;;;;10.77;1.65;;;;;;;;;;4215176;28;20036;-82
2022/05/23 10:53:52;;;;;;;4.47;1.67;;;;;;;;;;4214071;28;20048;-82
2022/05/23 10:56:22;;;;;;;5.47;1.58;;;;;;;;;;4215098;28;20047;-82
2022/05/23 10:58:34;;;;;;;4.32;1.80;;;;;;;;;;4208619;28;20122;-82
2022/05/23 11:00:39;;;;;;;4.22;1.40;;;;;;;;;;4232175;28;20051;-81
2022/05/23 11:02:40;;;;;;;4.28;1.45;;;;;;;;;;4232003;28;20123;-83
2022/05/23 11:04:41;;;;;;;8.27;1.90;;;;;;;;;;4231719;28;20087;-82
2022/05/23 11:07:02;;;;;;;5.28;1.52;;;;;;;;;;4232477;28;20032;-82
2022/05/23 11:09:07;;;;;;;3.58;1.85;;;;;;;;;;4231621;28;20392;-82
2022/05/23 11:11:26;;;;;;;3.70;1.42;;;;;;;;;;4232098;28;20488;-82
2022/05/23 11:13:36;;;;;;;5.30;1.75;;;;;;;;;;4231598;28;20039;-82
2022/05/23 11:15:49;;;;;;;3.63;1.80;;;;;;;;;;4232246;28;20048;-82
2022/05/23 11:17:51;;;;;;;4.18;1.60;;;;;;;;;;4230877;28;20056;-82
2022/05/23 11:19:56;;;;;;;4.68;1.50;;;;;;;;;;4231686;28;20050;-82
2022/05/23 11:22:01;;;;;;;5.70;2.00;;;;;;;;;;4249022;27;20143;-82
2022/05/23 11:24:09;;;;;;;2.95;1.40;;;;;;;;;;4248288;27;20039;-82
2022/05/23 11:26:31;;;;;;;8.05;2.17;;;;;;;;;;4248540;27;20115;-82
2022/05/23 11:35:42;;;;;;;5.18;1.63;;;;;;;;;;4243856;28;20492;-82
2022/05/23 11:37:45;;;;;;;3.70;1.33;;;;;;;;;;4229199;28;20439;-82
2022/05/23 11:39:53;;;;;;;3.30;1.40;;;;;;;;;;4248982;28;20118;-82
2022/05/23 11:41:54;;;;;;;6.47;1.98;;;;;;;;;;4248020;28;20043;-82
2022/05/23 11:43:57;;;;;;;2.25;1.35;;;;;;;;;;4248615;28;20434;-82
2022/05/23 11:46:05;;;;;;;5.70;1.58;;;;;;;;;;4230432;28;20123;-82
2022/05/23 11:48:26;;;;;;;5.90;1.13;;;;;;;;;;4212910;28;20557;-83
2022/05/23 11:50:31;;;;;;;3.40;1.30;;;;;;;;;;4248087;28;20126;-82
2022/05/23 11:52:41;;;;;;;0.80;0.70;;;;;;;;;;4212836;28;20088;-82
2022/05/23 11:54:43;;;;;;;5.90;1.10;;;;;;;;;;4231749;28;20476;-82
2022/05/23 11:56:45;;;;;;;3.42;0.95;;;;;;;;;;4231525;28;20044;-83
2022/05/23 11:58:49;;;;;;;5.72;1.20;;;;;;;;;;4213135;28;20166;-83
2022/05/23 12:01:11;;;;;;;3.28;1.30;;;;;;;;;;4231234;28;20040;-83